Terminal Aerodrome Forecast
Issued by NWS

Home | Current Version | Previous Version | Text Only | Print | Product List | Glossary On
Versions: 1 2 3 4 5 6 7 8 9 10 11 12 13
000
FTUS46 KLOX 021134
TAFPMD
TAF
KPMD 021134Z 0212/0312 25010KT P6SM SKC
     FM021600 24015KT P6SM SKC
     FM021900 24020G30KT P6SM SKC
     FM030200 24016KT P6SM SKC
     FM030800 24012KT P6SM SKC=

USA.gov is the U.S. government's official web portal to all federal, state and local government web resources and services.